KMCO/MCO METAR and TAF weather

Enter ICAO airport designator
Station Type Date Time Source
KMCO METAR 2021/02/27 21:53 UTC NOAA

KMCO 272153Z 09012KT 10SM FEW050 BKN080 27/19 A3016 RMK AO2 SLP210 T02720194


Station Type Date Time Source
KMCO Decoded METAR 2021/02/27 21:53 UTC NOAA

ORLANDO INTERNATIONAL AIRPORT , FL, United States (KMCO) 28-25N 81-20W 29M
Feb 27, 2021 - 04:53 PM EST / 2021.02.27 2153 UTC
Wind: from the E (090 degrees) at 14 MPH (12 KT):0
Visibility: 10 mile(s):0
Sky conditions: mostly cloudy
Temperature: 81.0 F (27.2 C)
Dew Point: 66.9 F (19.4 C)
Relative Humidity: 62%
Pressure (altimeter): 30.16 in. Hg (1021 hPa)
ob: KMCO 272153Z 09012KT 10SM FEW050 BKN080 27/19 A3016 RMK AO2 SLP210 T02720194
cycle: 22

Station Type Date Time Source
KMCO TAF 2021/02/27 21:59 UTC NOAA

TAF
AMD KMCO 272059Z 2721/2824 09012KT P6SM BKN060 BKN080
FM272300 12006KT P6SM FEW060 SCT250
FM281400 15010KT P6SM SCT025 SCT250

Example: see airport list